Time;durP1;ratioP1;P1;durP2;ratioP2;P2;SDS_P1;SDS_P2;PMS_P1;PMS_P2;Temp;Humidity;BMP_temperature;BMP_pressure;BME280_temperature;BME280_humidity;BME280_pressure;Samples;Min_cycle;Max_cycle;Signal;HPM_P1;HPM_P2
2022/09/20 00:01:28;;;;;;;0.40;0.20;;;;;;;13.51;70.87;95179.25;4970640;28;20434;-62
2022/09/20 00:03:58;;;;;;;0.40;0.30;;;;;;;13.69;71.14;95186.41;4970354;28;20474;-62
2022/09/20 00:06:29;;;;;;;0.40;0.30;;;;;;;13.74;71.27;95189.00;4970552;28;20430;-62
2022/09/20 00:09:00;;;;;;;0.40;0.20;;;;;;;14.04;71.04;95181.59;4970117;28;20443;-63
2022/09/20 00:11:31;;;;;;;0.40;0.20;;;;;;;14.57;70.49;95185.41;4970311;28;20432;-63
2022/09/20 00:14:01;;;;;;;0.40;0.20;;;;;;;13.66;70.61;95186.22;4970230;28;20911;-63
2022/09/20 00:16:34;;;;;;;0.40;0.40;;;;;;;12.25;78.29;95188.88;4970020;28;20438;-63
2022/09/20 00:19:05;;;;;;;0.40;0.30;;;;;;;11.99;85.32;95177.72;4970423;28;20928;-63
2022/09/20 00:21:35;;;;;;;0.40;0.20;;;;;;;12.50;84.70;95185.13;4969872;28;20483;-62
2022/09/20 00:24:04;;;;;;;0.50;0.30;;;;;;;12.00;89.30;95181.16;4969801;28;20496;-64
2022/09/20 00:26:33;;;;;;;0.40;0.20;;;;;;;11.76;95.04;95183.81;4970147;28;20850;-64
2022/09/20 00:29:02;;;;;;;0.40;0.30;;;;;;;11.39;96.50;95181.69;4970310;28;20436;-64
2022/09/20 00:31:32;;;;;;;0.40;0.20;;;;;;;11.89;93.82;95185.03;4969985;28;20442;-64
2022/09/20 00:36:46;;;;;;;0.40;0.30;;;;;;;13.08;82.25;95186.53;4970163;28;20484;-64
2022/09/20 00:39:15;;;;;;;0.40;0.30;;;;;;;13.04;81.45;95192.69;4969830;28;20492;-64
2022/09/20 00:41:44;;;;;;;0.40;0.20;;;;;;;12.51;83.77;95192.06;4970030;28;20939;-64
2022/09/20 00:44:53;;;;;;;0.60;0.33;;;;;;;12.35;85.68;95186.09;4970115;28;20472;-65
2022/09/20 00:47:30;;;;;;;0.40;0.20;;;;;;;13.12;83.18;95189.44;4969902;28;20429;-64
2022/09/20 00:50:05;;;;;;;0.40;0.20;;;;;;;12.68;83.21;95185.19;4972611;28;20864;-64
2022/09/20 00:52:35;;;;;;;0.50;0.30;;;;;;;12.68;82.60;95171.88;4973220;28;20437;-64
2022/09/20 00:55:07;;;;;;;0.40;0.30;;;;;;;12.73;82.50;95182.47;4973057;28;20437;-64
2022/09/20 00:57:37;;;;;;;0.40;0.30;;;;;;;12.89;80.44;95183.06;4973297;28;20430;-64
2022/09/20 01:00:08;;;;;;;0.40;0.20;;;;;;;13.44;79.59;95188.69;4973082;28;20443;-64
2022/09/20 01:02:41;;;;;;;0.40;0.20;;;;;;;13.49;77.26;95181.41;4972779;28;20445;-64
2022/09/20 01:05:12;;;;;;;0.40;0.20;;;;;;;13.38;78.20;95193.31;4972709;28;20427;-64
2022/09/20 01:07:43;;;;;;;0.40;0.20;;;;;;;13.87;78.24;95180.25;4972838;28;20956;-64
2022/09/20 01:10:11;;;;;;;0.40;0.30;;;;;;;13.67;77.65;95188.59;4973056;28;20449;-64
2022/09/20 01:12:40;;;;;;;0.40;0.20;;;;;;;14.00;78.31;95192.03;4972924;28;20457;-64
2022/09/20 01:15:09;;;;;;;0.40;0.20;;;;;;;13.66;76.41;95186.22;4972584;28;20833;-64
2022/09/20 01:17:42;;;;;;;0.40;0.20;;;;;;;13.84;76.38;95194.16;4974747;28;20946;-64
2022/09/20 01:20:19;;;;;;;0.50;0.47;;;;;;;13.72;76.12;95187.69;4972546;28;20446;-64
2022/09/20 01:23:11;;;;;;;0.40;0.30;;;;;;;13.86;77.28;95197.31;4972424;28;20427;-64
2022/09/20 01:25:54;;;;;;;0.50;0.40;;;;;;;13.01;77.28;95193.25;4972843;28;20452;-64
2022/09/20 01:28:26;;;;;;;0.40;0.30;;;;;;;13.48;77.57;95181.72;4972653;28;20440;-64
2022/09/20 01:31:03;;;;;;;0.40;0.27;;;;;;;13.25;76.94;95192.19;4972542;28;20431;-64
2022/09/20 01:33:42;;;;;;;0.50;0.30;;;;;;;12.29;80.97;95194.44;4972414;28;20443;-63
2022/09/20 01:36:17;;;;;;;0.40;0.20;;;;;;;13.07;80.43;95194.81;4972464;28;20422;-64
2022/09/20 01:38:55;;;;;;;0.40;0.40;;;;;;;12.86;79.96;95190.81;4972400;28;20485;-64
2022/09/20 01:41:28;;;;;;;0.40;0.20;;;;;;;12.91;83.00;95190.75;4972332;28;20440;-64
2022/09/20 01:44:06;;;;;;;0.40;0.20;;;;;;;12.36;82.11;95190.38;4972228;28;20478;-64
2022/09/20 01:46:36;;;;;;;0.40;0.20;;;;;;;11.92;82.55;95139.28;4972185;28;20436;-64
2022/09/20 01:49:28;;;;;;;0.43;0.40;;;;;;;12.52;84.03;95193.66;4972243;28;20437;-65
2022/09/20 01:52:32;;;;;;;0.40;0.20;;;;;;;12.06;84.69;95047.25;4972434;28;20437;-63
2022/09/20 01:55:57;;;;;;;0.40;0.20;;;;;;;13.02;80.68;95192.19;4972427;28;20436;-64
2022/09/20 01:59:06;;;;;;;0.40;0.30;;;;;;;13.26;79.08;95201.72;4972124;28;20817;-64
2022/09/20 02:02:17;;;;;;;0.40;0.20;;;;;;;13.13;78.54;95191.03;4971345;28;20430;-64
2022/09/20 02:05:23;;;;;;;0.40;0.20;;;;;;;13.40;76.75;95201.78;4972068;28;20481;-64
2022/09/20 02:08:14;;;;;;;0.40;0.20;;;;;;;13.45;76.89;95193.72;4972369;28;20449;-64
2022/09/20 02:11:13;;;;;;;0.40;0.20;;;;;;;13.54;75.75;95193.84;4972209;28;20434;-64
2022/09/20 02:14:05;;;;;;;0.40;0.20;;;;;;;13.48;76.83;95192.38;4971704;28;20464;-64
2022/09/20 02:16:53;;;;;;;0.40;0.20;;;;;;;13.67;76.94;95185.91;4971736;28;20990;-64
2022/09/20 02:19:34;;;;;;;0.40;0.30;;;;;;;13.71;77.10;95194.91;4971637;28;20440;-65
2022/09/20 02:22:16;;;;;;;0.40;0.20;;;;;;;13.93;80.15;95192.41;4971932;28;20453;-65
2022/09/20 02:24:53;;;;;;;0.53;0.53;;;;;;;13.63;78.07;95189.47;4971939;28;20854;-64
2022/09/20 02:27:27;;;;;;;0.40;0.20;;;;;;;13.80;80.22;95187.84;4971774;28;20436;-64
2022/09/20 02:30:15;;;;;;;0.53;0.53;;;;;;;13.78;79.78;95199.88;4971794;28;20430;-63
2022/09/20 02:33:15;;;;;;;0.40;0.20;;;;;;;13.87;77.38;95198.09;4971669;28;20437;-63
2022/09/20 02:35:56;;;;;;;0.60;0.30;;;;;;;13.28;76.61;95191.56;4971262;28;20438;-63
2022/09/20 02:38:42;;;;;;;0.60;0.60;;;;;;;13.61;81.41;95196.97;4971867;28;20437;-63
2022/09/20 02:41:47;;;;;;;0.60;0.43;;;;;;;13.07;77.63;95203.59;4971897;28;20444;-63
2022/09/20 02:44:26;;;;;;;0.40;0.20;;;;;;;13.59;80.26;95213.22;4971573;28;20481;-63
2022/09/20 02:47:06;;;;;;;10.73;0.40;;;;;;;13.71;76.49;95210.09;4971224;28;20438;-62
2022/09/20 02:49:44;;;;;;;0.57;0.50;;;;;;;13.85;76.27;95202.94;4971473;28;20445;-62
2022/09/20 02:52:20;;;;;;;0.40;0.20;;;;;;;13.80;76.09;95209.16;4971130;28;20430;-62
2022/09/20 02:54:58;;;;;;;0.40;0.20;;;;;;;13.94;75.74;95201.97;4971018;28;20430;-62
2022/09/20 02:57:38;;;;;;;0.40;0.20;;;;;;;13.65;75.18;95201.41;4971314;28;20434;-62
2022/09/20 03:00:12;;;;;;;0.40;0.20;;;;;;;13.27;76.21;95210.50;4971429;28;20804;-63
2022/09/20 03:02:51;;;;;;;0.40;0.30;;;;;;;11.72;83.49;95216.47;4971001;28;20433;-63
2022/09/20 03:05:24;;;;;;;0.40;0.20;;;;;;;11.75;84.99;95222.03;4971084;28;20508;-64
2022/09/20 03:08:11;;;;;;;0.40;0.20;;;;;;;11.48;86.21;95237.63;4972626;28;20464;-64
2022/09/20 03:10:50;;;;;;;0.47;0.30;;;;;;;11.02;91.88;95231.00;4971835;28;20434;-64
2022/09/20 03:13:31;;;;;;;0.63;0.63;;;;;;;10.71;94.87;95235.66;4971580;28;20430;-65
2022/09/20 03:16:08;;;;;;;0.40;0.20;;;;;;;10.69;95.29;95227.97;4976450;28;20433;-66
2022/09/20 03:18:47;;;;;;;0.50;0.30;;;;;;;10.64;99.00;95227.19;4972048;28;20464;-64
2022/09/20 03:21:29;;;;;;;0.50;0.50;;;;;;;10.68;100.00;95229.03;4972134;28;20430;-65
2022/09/20 03:24:09;;;;;;;0.40;0.30;;;;;;;11.04;96.00;95231.50;4971585;28;20474;-63
2022/09/20 03:26:47;;;;;;;0.40;0.20;;;;;;;11.72;88.40;95238.50;4976070;28;20430;-65
2022/09/20 03:29:32;;;;;;;0.40;0.20;;;;;;;12.24;92.13;95229.81;4973325;28;20448;-65
2022/09/20 03:32:20;;;;;;;0.40;0.20;;;;;;;12.23;83.16;95230.88;4975689;28;20422;-65
2022/09/20 03:35:03;;;;;;;0.40;0.30;;;;;;;12.00;84.38;95223.66;4973882;28;20806;-64
2022/09/20 03:37:51;;;;;;;0.50;0.30;;;;;;;11.42;89.40;95231.53;4971900;28;20458;-64
2022/09/20 03:40:45;;;;;;;0.40;0.20;;;;;;;11.33;92.37;95235.84;4975776;28;20473;-66
2022/09/20 03:43:27;;;;;;;0.40;0.23;;;;;;;11.55;91.71;95247.91;4977892;28;20438;-66
2022/09/20 03:46:12;;;;;;;0.40;0.30;;;;;;;12.04;86.08;95240.66;4974018;28;20478;-66
2022/09/20 03:49:03;;;;;;;0.40;0.30;;;;;;;12.48;85.19;95240.47;4970888;28;20442;-66
2022/09/20 03:51:45;;;;;;;0.40;0.30;;;;;;;12.62;82.38;95236.84;4972112;28;20487;-67
2022/09/20 03:54:39;;;;;;;0.40;0.20;;;;;;;12.57;81.85;95230.81;4972196;28;20470;-66
2022/09/20 03:57:39;;;;;;;0.40;0.20;;;;;;;12.61;82.27;95237.13;4971637;28;20437;-64
2022/09/20 04:00:22;;;;;;;0.40;0.20;;;;;;;11.62;81.12;95052.75;4971545;28;20454;-65
2022/09/20 04:03:07;;;;;;;0.40;0.20;;;;;;;13.09;80.07;95256.53;4970925;28;20499;-65
2022/09/20 04:05:47;;;;;;;0.40;0.20;;;;;;;13.22;80.27;95245.19;4970226;28;20967;-63
2022/09/20 04:08:30;;;;;;;0.40;0.20;;;;;;;13.09;80.00;95233.38;4970519;28;20441;-64
2022/09/20 04:11:08;;;;;;;0.40;0.20;;;;;;;12.83;79.91;95237.38;4970126;28;20528;-64
2022/09/20 04:13:40;;;;;;;0.40;0.20;;;;;;;12.75;80.98;95246.78;4970031;28;20470;-64
2022/09/20 04:16:22;;;;;;;0.40;0.20;;;;;;;13.01;79.36;95249.13;4969922;28;20473;-64
2022/09/20 04:18:56;;;;;;;0.40;0.20;;;;;;;13.03;78.85;95249.66;4969945;28;20434;-64
2022/09/20 04:21:31;;;;;;;0.40;0.30;;;;;;;12.25;80.97;95252.66;4969826;28;20524;-63
2022/09/20 04:24:09;;;;;;;0.40;0.20;;;;;;;12.17;83.46;95261.22;4971499;28;20829;-63
2022/09/20 04:26:44;;;;;;;0.40;0.30;;;;;;;12.55;81.48;95268.28;4973508;28;20795;-63
2022/09/20 04:29:27;;;;;;;0.40;0.30;;;;;;;12.18;82.12;95275.31;4973582;28;20427;-63
2022/09/20 04:32:03;;;;;;;0.50;0.40;;;;;;;11.90;85.76;95268.91;4973442;28;20802;-62
2022/09/20 04:37:32;;;;;;;0.87;0.60;;;;;;;12.75;80.32;95278.69;4973210;28;20827;-61
2022/09/20 04:40:23;;;;;;;0.90;0.50;;;;;;;12.37;82.11;95276.22;4972544;28;20485;-61
2022/09/20 04:43:52;;;;;;;0.60;0.40;;;;;;;12.32;82.21;95274.38;4972622;28;20924;-61
2022/09/20 04:47:02;;;;;;;2.70;0.60;;;;;;;11.77;87.15;95280.16;4989905;28;20622;-60
2022/09/20 04:49:57;;;;;;;1.33;0.70;;;;;;;12.20;84.03;95268.63;4972559;28;20444;-61
2022/09/20 04:53:01;;;;;;;0.60;0.60;;;;;;;12.11;82.67;95262.38;4930823;28;20444;-61
2022/09/20 04:55:49;;;;;;;0.83;0.83;;;;;;;12.33;80.23;95198.91;4972530;28;20464;-61
2022/09/20 04:58:45;;;;;;;0.40;0.30;;;;;;;13.05;77.90;95268.78;4972713;28;20934;-61
2022/09/20 05:01:50;;;;;;;0.40;0.20;;;;;;;13.46;76.16;95264.53;4972899;28;20440;-59
2022/09/20 05:05:02;;;;;;;0.40;0.20;;;;;;;12.77;78.51;95267.00;4972678;28;20996;-60
2022/09/20 05:08:08;;;;;;;0.40;0.30;;;;;;;13.40;77.41;95271.00;4972881;28;20422;-60
2022/09/20 05:11:08;;;;;;;0.40;0.30;;;;;;;13.62;75.97;95273.09;4972563;28;20444;-60
2022/09/20 05:13:51;;;;;;;0.40;0.40;;;;;;;13.85;74.50;95274.88;4971282;28;20450;-60
2022/09/20 05:16:25;;;;;;;0.50;0.30;;;;;;;13.35;76.29;95274.53;4972540;28;20422;-60
2022/09/20 05:19:11;;;;;;;0.40;0.30;;;;;;;12.96;78.38;95270.47;4972473;28;20468;-60
2022/09/20 05:21:50;;;;;;;0.40;0.30;;;;;;;12.87;79.23;95265.03;4972999;28;20441;-60
2022/09/20 05:24:43;;;;;;;0.40;0.20;;;;;;;13.45;76.64;95268.28;4972880;28;20430;-59
2022/09/20 05:27:29;;;;;;;0.40;0.30;;;;;;;13.87;75.37;95280.69;4969690;28;20438;-60
2022/09/20 05:30:05;;;;;;;0.50;0.50;;;;;;;13.53;76.57;95288.94;4972635;28;20434;-60
2022/09/20 05:32:44;;;;;;;0.40;0.23;;;;;;;13.47;76.25;95234.16;4972753;28;20776;-60
2022/09/20 05:35:21;;;;;;;0.40;0.30;;;;;;;13.40;76.87;95279.00;4971194;28;20800;-60
2022/09/20 05:37:57;;;;;;;0.40;0.30;;;;;;;13.18;78.25;95276.88;4972368;28;20426;-59
2022/09/20 05:40:31;;;;;;;0.47;0.33;;;;;;;12.89;78.88;95251.41;4972409;28;21021;-60
2022/09/20 05:43:10;;;;;;;1.13;0.77;;;;;;;13.49;79.12;95276.47;4971380;28;20498;-59
2022/09/20 05:46:05;;;;;;;0.67;0.67;;;;;;;13.39;79.35;95280.06;4972176;28;20988;-60
2022/09/20 05:48:44;;;;;;;0.50;0.40;;;;;;;13.35;79.40;95268.44;4973511;28;20947;-59
2022/09/20 05:51:27;;;;;;;9.83;1.17;;;;;;;13.49;79.22;95260.50;4972202;28;20430;-58
2022/09/20 05:54:27;;;;;;;1.53;1.43;;;;;;;14.11;78.24;95256.59;4972140;28;20860;-58
2022/09/20 05:57:10;;;;;;;0.53;0.53;;;;;;;15.40;72.92;95266.94;4971929;28;20456;-59
2022/09/20 05:59:54;;;;;;;0.50;0.47;;;;;;;15.39;72.27;95244.78;4972196;28;20438;-58
2022/09/20 06:02:36;;;;;;;0.40;0.30;;;;;;;14.91;71.59;95255.13;4971967;28;20492;-62
2022/09/20 06:05:14;;;;;;;0.50;0.40;;;;;;;14.60;73.97;95259.47;4972034;28;20442;-59
2022/09/20 06:08:21;;;;;;;1.07;1.07;;;;;;;13.51;77.54;95226.41;4971920;28;20445;-59
2022/09/20 06:11:06;;;;;;;2.30;1.43;;;;;;;13.62;79.20;95275.75;4975537;28;20456;-59
2022/09/20 06:13:59;;;;;;;1.13;1.13;;;;;;;13.53;80.38;95278.28;4971792;28;20425;-59
2022/09/20 06:16:38;;;;;;;0.90;0.90;;;;;;;14.15;78.92;95273.59;4970734;28;20959;-59
2022/09/20 06:19:18;;;;;;;0.53;0.50;;;;;;;13.27;81.95;95263.72;4971693;28;20488;-59
2022/09/20 06:21:52;;;;;;;1.03;0.47;;;;;;;13.11;83.76;95278.31;4971792;28;20437;-60
2022/09/20 06:24:31;;;;;;;0.70;0.70;;;;;;;13.13;86.24;95292.91;4971747;28;20429;-59
2022/09/20 06:27:03;;;;;;;0.83;0.57;;;;;;;13.06;89.03;95294.31;4971946;28;20477;-59
2022/09/20 06:29:35;;;;;;;0.60;0.40;;;;;;;12.80;91.35;95295.69;4971737;28;20437;-60
2022/09/20 06:32:05;;;;;;;0.50;0.40;;;;;;;13.07;91.79;95285.28;4971192;28;20951;-60
2022/09/20 06:34:34;;;;;;;0.60;0.30;;;;;;;13.05;91.39;95292.75;4971631;28;20418;-60
2022/09/20 06:42:52;;;;;;;0.90;0.70;;;;;;;14.13;81.84;95289.09;4971102;28;20448;-58
2022/09/20 06:45:21;;;;;;;0.40;0.30;;;;;;;15.50;81.56;95283.56;4970763;28;20435;-58
2022/09/20 06:47:50;;;;;;;0.40;0.33;;;;;;;15.67;74.86;95283.72;4970868;28;20438;-59
2022/09/20 06:50:19;;;;;;;1.73;0.40;;;;;;;15.84;74.47;95281.19;4971170;28;20442;-59
2022/09/20 06:52:48;;;;;;;0.40;0.30;;;;;;;16.55;72.70;95276.78;4971411;28;20429;-62
2022/09/20 06:55:21;;;;;;;0.40;0.30;;;;;;;16.56;70.75;95285.63;4970814;28;20430;-61
2022/09/20 06:57:55;;;;;;;0.40;0.30;;;;;;;16.84;68.42;95287.81;4971308;28;20458;-62
2022/09/20 07:00:24;;;;;;;0.40;0.30;;;;;;;16.92;67.26;95291.63;4970925;28;20453;-63
2022/09/20 07:02:55;;;;;;;0.83;0.83;;;;;;;17.57;65.79;95288.97;4970800;28;20423;-64
2022/09/20 07:05:25;;;;;;;0.40;0.20;;;;;;;17.44;64.92;95290.66;4970971;28;20442;-63
2022/09/20 07:07:57;;;;;;;0.80;0.80;;;;;;;16.86;65.70;95298.19;4970687;28;20426;-64
2022/09/20 07:10:27;;;;;;;0.50;0.40;;;;;;;16.32;66.84;95222.53;4970957;28;20434;-64
2022/09/20 07:12:57;;;;;;;0.83;0.83;;;;;;;16.77;66.75;95292.03;4970733;28;20900;-64
2022/09/20 07:15:27;;;;;;;0.50;0.40;;;;;;;17.20;65.85;95282.28;4970713;28;20439;-63
2022/09/20 07:17:56;;;;;;;0.50;0.40;;;;;;;17.95;64.48;95281.13;4970624;28;20427;-65
2022/09/20 07:20:25;;;;;;;1.07;1.07;;;;;;;19.63;61.53;95262.41;4970562;28;20431;-64
2022/09/20 07:22:53;;;;;;;1.20;1.10;;;;;;;20.95;57.84;95276.72;4970500;28;20437;-65
2022/09/20 07:25:22;;;;;;;0.67;0.53;;;;;;;21.62;57.75;95273.44;4970947;28;20949;-67
2022/09/20 07:27:51;;;;;;;0.50;0.37;;;;;;;21.90;52.28;95261.63;4970985;28;20469;-68
2022/09/20 07:30:20;;;;;;;0.50;0.30;;;;;;;22.15;51.41;95273.13;4970660;28;20756;-64
2022/09/20 07:32:49;;;;;;;0.80;0.80;;;;;;;21.92;48.59;95134.44;4970916;28;20810;-60
2022/09/20 07:35:18;;;;;;;0.50;0.47;;;;;;;23.56;49.59;95254.34;4970707;28;20917;-59
2022/09/20 07:37:47;;;;;;;0.60;0.60;;;;;;;24.03;47.66;95271.25;4970597;28;20430;-58
2022/09/20 07:40:15;;;;;;;1.43;0.60;;;;;;;23.31;47.53;95199.66;4970419;28;20467;-59
2022/09/20 07:42:44;;;;;;;6.13;1.03;;;;;;;23.99;45.00;95232.47;4970184;28;20434;-59
2022/09/20 07:45:13;;;;;;;1.20;0.40;;;;;;;23.83;43.77;95248.00;4970118;28;20432;-60
2022/09/20 07:47:43;;;;;;;1.23;0.50;;;;;;;24.05;42.12;95262.75;4970672;28;20467;-58
2022/09/20 07:50:11;;;;;;;3.63;0.80;;;;;;;24.72;43.94;95253.25;4970670;28;20914;-58
2022/09/20 07:52:41;;;;;;;1.63;1.53;;;;;;;24.69;42.69;95257.47;4970274;28;20442;-56
2022/09/20 07:55:09;;;;;;;0.70;0.70;;;;;;;23.89;42.16;95255.47;4970547;28;20428;-57
2022/09/20 07:57:38;;;;;;;0.70;0.40;;;;;;;22.40;47.37;95257.59;4970512;28;20428;-57
2022/09/20 08:00:09;;;;;;;0.40;0.33;;;;;;;23.00;47.99;95257.25;4970045;28;20847;-57
2022/09/20 08:02:37;;;;;;;0.40;0.37;;;;;;;23.63;45.60;95247.16;4970217;28;20933;-57
2022/09/20 08:05:06;;;;;;;0.50;0.30;;;;;;;23.53;44.78;95250.41;4970091;28;20889;-57
2022/09/20 08:07:35;;;;;;;0.50;0.30;;;;;;;24.07;44.76;95244.22;4970116;28;20525;-57
2022/09/20 08:10:06;;;;;;;0.50;0.50;;;;;;;23.80;42.79;95249.50;4970255;28;20424;-57
2022/09/20 08:12:34;;;;;;;0.40;0.30;;;;;;;24.86;43.20;95232.63;4969926;28;20441;-58
2022/09/20 08:15:23;;;;;;;1.03;1.03;;;;;;;23.95;41.64;95224.28;4970080;28;20958;-58
2022/09/20 08:17:51;;;;;;;0.50;0.40;;;;;;;25.34;41.23;95239.19;4969904;28;20957;-58
2022/09/20 08:20:19;;;;;;;1.20;0.60;;;;;;;24.59;40.22;95230.97;4969715;28;20787;-58
2022/09/20 08:22:48;;;;;;;0.90;0.90;;;;;;;25.30;40.20;95224.78;4970519;28;20451;-58
2022/09/20 08:25:38;;;;;;;0.70;0.60;;;;;;;25.78;39.93;95226.66;4969690;28;20432;-58
2022/09/20 08:28:06;;;;;;;0.57;0.57;;;;;;;24.96;37.63;95172.34;4969788;28;20488;-58
2022/09/20 08:30:34;;;;;;;0.60;0.60;;;;;;;24.84;38.02;95217.84;4970255;28;20796;-58
2022/09/20 08:33:05;;;;;;;0.40;0.37;;;;;;;25.23;35.27;95221.97;4969735;28;20430;-58
2022/09/20 08:35:35;;;;;;;0.40;0.30;;;;;;;25.90;34.97;95159.72;4970169;28;20430;-58
2022/09/20 08:38:06;;;;;;;0.30;0.20;;;;;;;26.65;34.30;95211.00;4970102;28;20439;-58
2022/09/20 08:41:00;;;;;;;0.50;0.50;;;;;;;26.32;33.05;95220.00;4969588;28;20509;-56
2022/09/20 08:43:35;;;;;;;0.40;0.30;;;;;;;26.52;32.04;95207.00;4970134;28;20432;-57
2022/09/20 08:46:06;;;;;;;0.40;0.30;;;;;;;26.63;32.25;95207.88;4970073;28;20439;-57
2022/09/20 08:48:34;;;;;;;0.60;0.40;;;;;;;27.34;32.26;95138.53;4969988;28;20479;-58
2022/09/20 08:51:05;;;;;;;0.33;0.20;;;;;;;26.99;32.78;95207.09;4969509;28;20441;-57
2022/09/20 08:53:34;;;;;;;0.50;0.33;;;;;;;26.46;34.34;95199.16;4969652;28;20558;-59
2022/09/20 08:56:08;;;;;;;0.50;0.40;;;;;;;26.85;33.60;95204.22;4969952;28;20432;-58
2022/09/20 08:58:37;;;;;;;0.40;0.30;;;;;;;27.43;33.77;95177.88;4969307;28;20439;-59
2022/09/20 09:01:06;;;;;;;0.50;0.50;;;;;;;27.66;32.83;95192.03;4969672;28;20459;-58
2022/09/20 09:03:34;;;;;;;0.43;0.30;;;;;;;28.22;32.26;95188.00;4969411;28;20443;-70
2022/09/20 09:06:03;;;;;;;0.40;0.30;;;;;;;28.80;31.98;95191.28;4970438;28;20438;-70
2022/09/20 09:08:39;;;;;;;0.47;0.37;;;;;;;29.24;31.67;95182.75;4973240;28;20492;-72
2022/09/20 09:11:14;;;;;;;5.70;0.57;;;;;;;28.95;30.67;95176.47;4970884;28;20446;-70
2022/09/20 09:13:51;;;;;;;0.40;0.30;;;;;;;27.93;31.37;95151.66;4972912;28;20465;-70
2022/09/20 09:16:22;;;;;;;0.30;0.30;;;;;;;28.60;30.97;95162.00;4972396;28;20442;-70
2022/09/20 09:19:26;;;;;;;0.40;0.30;;;;;;;29.43;28.86;95160.47;4972644;28;20430;-70
2022/09/20 09:22:02;;;;;;;0.40;0.30;;;;;;;30.10;29.63;95157.56;4972632;28;20449;-70
2022/09/20 09:24:31;;;;;;;0.40;0.30;;;;;;;28.73;29.50;95155.03;4972446;28;20426;-69
2022/09/20 09:27:09;;;;;;;0.67;0.30;;;;;;;28.28;31.29;95157.25;4972725;28;20473;-69
2022/09/20 09:29:49;;;;;;;0.40;0.30;;;;;;;27.02;31.27;95064.84;4972375;28;20443;-69
2022/09/20 09:32:23;;;;;;;0.40;0.30;;;;;;;27.79;31.58;95142.66;4972318;28;20443;-69
2022/09/20 09:34:52;;;;;;;0.40;0.30;;;;;;;28.98;30.46;95136.72;4972228;28;20439;-69
2022/09/20 09:37:25;;;;;;;0.30;0.20;;;;;;;29.89;28.03;95119.38;4972373;28;20444;-69
2022/09/20 09:40:16;;;;;;;0.30;0.20;;;;;;;30.00;28.52;95122.06;4971996;28;21101;-69
2022/09/20 09:42:55;;;;;;;0.30;0.20;;;;;;;29.06;28.52;95121.13;4972147;28;20872;-69
2022/09/20 09:45:34;;;;;;;0.30;0.20;;;;;;;30.10;28.12;95116.56;4972207;28;20496;-68
2022/09/20 09:48:17;;;;;;;0.30;0.20;;;;;;;31.18;27.83;95113.44;4972606;28;20476;-68
2022/09/20 09:50:45;;;;;;;0.37;0.27;;;;;;;30.93;27.46;95110.16;4973202;28;20962;-69
2022/09/20 09:53:16;;;;;;;0.60;0.30;;;;;;;31.29;27.14;95116.88;4973599;28;20436;-69
2022/09/20 09:56:07;;;;;;;0.40;0.30;;;;;;;31.49;26.76;95124.50;4972056;28;20445;-69
2022/09/20 09:58:57;;;;;;;0.90;0.70;;;;;;;29.43;26.93;95116.78;4972208;28;20527;-69
2022/09/20 10:01:38;;;;;;;0.77;0.77;;;;;;;29.47;28.17;95120.28;4972234;28;20445;-69
2022/09/20 10:04:15;;;;;;;0.30;0.30;;;;;;;31.19;25.33;95120.50;4971842;28;20470;-69
2022/09/20 10:06:53;;;;;;;0.30;0.30;;;;;;;31.12;27.35;95123.28;4971864;28;20429;-65
2022/09/20 10:09:37;;;;;;;0.40;0.30;;;;;;;30.93;25.37;95121.09;4971884;28;20445;-64
2022/09/20 10:12:19;;;;;;;0.40;0.30;;;;;;;31.27;25.02;95113.75;4971926;28;20897;-65
2022/09/20 10:15:07;;;;;;;1.90;0.40;;;;;;;29.82;25.40;95110.44;4971882;28;20441;-66
2022/09/20 10:17:46;;;;;;;0.30;0.30;;;;;;;31.03;25.86;95112.03;4971674;28;20428;-65
2022/09/20 10:20:32;;;;;;;0.50;0.30;;;;;;;29.70;26.33;95105.38;4971708;28;20437;-66
2022/09/20 10:23:11;;;;;;;0.30;0.30;;;;;;;30.70;26.88;95109.94;4971461;28;20488;-63
2022/09/20 10:26:08;;;;;;;0.33;0.27;;;;;;;30.71;25.40;95098.56;4971438;28;20460;-64
2022/09/20 10:28:49;;;;;;;0.40;0.30;;;;;;;31.06;25.47;95118.66;4971410;28;20480;-63
2022/09/20 10:31:45;;;;;;;0.30;0.20;;;;;;;31.74;25.53;95004.44;4971255;28;20434;-63
2022/09/20 10:34:41;;;;;;;0.50;0.33;;;;;;;30.58;24.84;95099.47;4971197;28;20761;-63
2022/09/20 10:37:17;;;;;;;0.40;0.30;;;;;;;30.31;24.89;95041.78;4971532;28;20438;-63
2022/09/20 10:39:49;;;;;;;0.40;0.30;;;;;;;30.78;25.29;95098.53;4970751;28;20523;-63
2022/09/20 10:45:17;;;;;;;0.30;0.20;;;;;;;30.16;26.33;95095.03;4971556;28;20464;-64
2022/09/20 10:48:16;;;;;;;2.20;0.30;;;;;;;30.10;28.12;95036.50;4970791;28;20543;-64
2022/09/20 10:50:52;;;;;;;0.30;0.20;;;;;;;32.18;25.06;95086.47;4971022;28;20434;-63
2022/09/20 10:53:28;;;;;;;0.40;0.37;;;;;;;31.67;24.81;95084.78;4971549;28;21037;-63
2022/09/20 10:56:14;;;;;;;0.37;0.30;;;;;;;32.18;26.23;95064.53;4971250;28;20456;-63
2022/09/20 10:59:05;;;;;;;0.40;0.30;;;;;;;31.64;28.39;95058.19;4971363;28;20430;-63
2022/09/20 11:01:41;;;;;;;0.30;0.30;;;;;;;31.68;26.86;95069.88;4971369;28;20433;-64
2022/09/20 11:04:36;;;;;;;0.40;0.30;;;;;;;31.88;26.57;95026.94;4971267;28;20433;-63
2022/09/20 11:07:12;;;;;;;0.33;0.30;;;;;;;31.94;26.76;95071.13;4968083;28;20770;-64
2022/09/20 11:09:47;;;;;;;0.77;0.60;;;;;;;32.91;25.19;95050.09;4971002;28;20490;-63
2022/09/20 11:12:25;;;;;;;0.40;0.30;;;;;;;31.51;25.30;94976.94;4970650;28;20442;-63
2022/09/20 11:14:57;;;;;;;0.40;0.30;;;;;;;31.27;26.26;95055.47;4970896;28;20437;-63
2022/09/20 11:17:31;;;;;;;0.30;0.20;;;;;;;31.38;26.71;95058.84;4970844;28;20444;-64
2022/09/20 11:20:07;;;;;;;0.40;0.30;;;;;;;30.63;27.65;95060.75;4970950;28;20422;-64
2022/09/20 11:22:42;;;;;;;0.30;0.20;;;;;;;30.11;28.92;95048.97;4970981;28;20441;-65
2022/09/20 11:25:18;;;;;;;0.30;0.30;;;;;;;31.18;27.77;95060.63;4971138;28;20441;-64
2022/09/20 11:27:55;;;;;;;0.40;0.30;;;;;;;30.80;28.13;95057.06;4971194;28;20433;-64
2022/09/20 11:30:24;;;;;;;0.40;0.30;;;;;;;31.40;26.48;95035.34;4970259;28;20448;-64
2022/09/20 11:32:56;;;;;;;0.40;0.30;;;;;;;31.29;26.56;95048.41;4969780;28;20438;-63
2022/09/20 11:35:34;;;;;;;0.40;0.30;;;;;;;32.01;25.30;95041.66;4970133;28;20430;-64
2022/09/20 11:38:10;;;;;;;0.40;0.30;;;;;;;33.17;24.81;95047.25;4970132;28;20432;-63
2022/09/20 11:40:43;;;;;;;0.40;0.40;;;;;;;29.90;27.62;95008.13;4970366;28;20444;-63
2022/09/20 11:43:13;;;;;;;0.30;0.20;;;;;;;29.96;27.57;95031.88;4970282;28;20430;-64
2022/09/20 11:45:45;;;;;;;0.30;0.20;;;;;;;31.76;25.69;94994.59;4970743;28;20520;-64
2022/09/20 11:48:20;;;;;;;0.50;0.30;;;;;;;31.26;26.20;94997.19;4970548;28;20890;-64
2022/09/20 11:51:20;;;;;;;0.40;0.40;;;;;;;31.02;26.54;95031.06;4970381;28;20437;-64
2022/09/20 11:54:15;;;;;;;0.40;0.40;;;;;;;28.41;27.99;94897.94;4970738;28;20429;-64
2022/09/20 11:56:51;;;;;;;0.30;0.20;;;;;;;28.80;28.30;94988.63;4967936;28;20452;-64
2022/09/20 11:59:29;;;;;;;0.30;0.20;;;;;;;28.32;28.36;94892.88;4974506;28;20441;-64
2022/09/20 12:02:00;;;;;;;0.30;0.20;;;;;;;29.54;29.58;94991.91;4971775;28;20815;-63
2022/09/20 12:04:31;;;;;;;0.40;0.30;;;;;;;28.93;28.24;95023.28;4970360;28;20430;-64
2022/09/20 12:07:05;;;;;;;0.40;0.30;;;;;;;28.89;28.02;95014.31;4970437;28;20438;-64
2022/09/20 12:09:42;;;;;;;0.40;0.30;;;;;;;28.17;28.51;95020.19;4970100;28;20991;-65
2022/09/20 12:12:19;;;;;;;0.37;0.30;;;;;;;28.05;28.10;95026.03;4970002;28;21093;-65
2022/09/20 12:14:55;;;;;;;0.30;0.30;;;;;;;28.52;27.35;95024.09;4970180;28;20421;-65
2022/09/20 12:17:56;;;;;;;0.40;0.30;;;;;;;28.02;28.46;95020.56;4970275;28;20438;-63
2022/09/20 12:21:02;;;;;;;0.40;0.30;;;;;;;27.53;27.73;94983.88;4971131;28;20462;-63
2022/09/20 12:24:17;;;;;;;0.33;0.27;;;;;;;27.35;28.09;95023.81;4972388;28;20449;-63
2022/09/20 12:26:48;;;;;;;0.30;0.20;;;;;;;26.37;28.34;95019.34;4969974;28;20436;-62
2022/09/20 12:29:56;;;;;;;0.30;0.30;;;;;;;26.37;28.72;95043.78;4970198;28;21021;-66
2022/09/20 12:32:41;;;;;;;1.00;0.30;;;;;;;25.88;28.64;95035.94;4969800;28;20442;-65
2022/09/20 12:35:58;;;;;;;0.37;0.27;;;;;;;26.79;28.53;95031.72;4970077;28;20793;-66
2022/09/20 12:38:47;;;;;;;0.40;0.30;;;;;;;26.43;27.75;95019.78;4969418;28;20482;-66
2022/09/20 12:41:19;;;;;;;0.40;0.30;;;;;;;26.71;28.21;95030.06;4969754;28;20445;-66
2022/09/20 12:44:19;;;;;;;0.30;0.20;;;;;;;26.20;27.59;95028.13;4969543;28;20446;-66
2022/09/20 12:46:53;;;;;;;0.30;0.20;;;;;;;26.45;27.56;95025.63;4973198;28;20975;-66